ENDUENTC

Guest
Details From ENDU - Bardufoss
To ENTC - Tromso Langnes
Flight Number -
Tags Generated
Created
Modified
Stats Distance 38 nm / 70 km
Max Altitude 0 ft / 0 m
Waypoints 2
Social Downloads 4
Likes 0
Share VATSIM

Download

Looking for another format? Having issues loading an existing format? Contact us
Advertisement - Login to hide

Notes

Generated

Route

ENDU ENTC

ID Type Via Altitude Latitude Longitude Leg Dist Tot Dist Heading (true) Name
O ENDU APT - 0 ft / 0 m 69.05952˚ 18.50984˚ - 0 nm - -
O ENTC APT - 0 ft / 0 m 69.67250˚ 18.91291˚ 37 nm 37 nm 13° / 13° -

Altitude Profile

Advertisement - Login to hide

ENDU

Details ICAO ENDU (BDU)
Name Bardufoss
Region Norway
Timezone Europe/Oslo (UTC+1.0)
Stats Elevation 252 ft / 77 m (AMSL)
Location 69.055932° 18.538902°
Runways 1
Magnetic Variation 8.415° E

METAR

ENDU 170420Z AUTO VRB01KT 9999 -SN FEW015/// OVC033/// M14/M15 Q0999 RMK WIND 1100FT 22012KT WIND 2200FT 21011KT

Decode

TAF

TAF ENDU 162300Z 1700/1724 VRB05KT 9999 FEW020 BKN040 TEMPO 1706/1724 1000 SHSN VV007

Decode

Departure Runways

ID Width Length Bearing (true) Bearing (mag) Surface Threshold Offset Overrun Length
10 148 ft / 45 m 8,022 ft / 2,445 m 109.02° 100.60° Asphalt 0 ft / 0 m 890 ft / 271 m
28 148 ft / 45 m 8,022 ft / 2,445 m 289.08° 280.66° Asphalt 0 ft / 0 m 890 ft / 271 m

ENTC

Details ICAO ENTC (TOS)
Name Tromso Langnes
Region Norway
Timezone Europe/Oslo (UTC+1.0)
Stats Elevation 31 ft / 9 m (AMSL)
Location 69.682866° 18.919363°
Runways 1
Magnetic Variation 8.800° E

METAR

ENTC 170350Z 20015KT CAVOK M03/M05 Q0997 RMK WIND 2600FT 18018KT

Decode

TAF

TAF ENTC 162300Z 1700/1724 21010KT 9999 FEW015 BKN040 TEMPO 1706/1724 0800 SHSN VV006

Decode

Destination Runways

ID Width Length Bearing (true) Bearing (mag) Surface Threshold Offset Overrun Length
01 141 ft / 43 m 7,740 ft / 2,359 m 12.19° 3.39° Asphalt 0 ft / 0 m 289 ft / 88 m
19 141 ft / 43 m 7,740 ft / 2,359 m 192.21° 183.41° Asphalt 1,227 ft / 374 m 482 ft / 147 m

Approach Navaids

Runway Type Ident Frequency Range Bearing (true) Bearing (mag) Slope Elevation
01 Localiser TC 110.90 MHz 18 nm / 33 km 12.08° 3.28° - 56 ft / 17 m (AMSL)
01 Glidescope TC 110.90 MHz 10 nm / 19 km 12.20° 3.40° 4.00° 31 ft / 9 m (AMSL)
01 DME TC 110.90 MHz 18 nm / 33 km - - - 56 ft / 17 m (AMSL)
19 Localiser TR 109.90 MHz 18 nm / 33 km 193.28° 184.48° - 36 ft / 11 m (AMSL)
19 Glidescope TR 109.90 MHz 10 nm / 19 km 192.20° 183.40° 4.00° 31 ft / 9 m (AMSL)
19 DME TR 109.90 MHz 18 nm / 33 km - - - 36 ft / 11 m (AMSL)